sensor_id;sensor_type;location;lat;lon;timestamp;temperature;humidity
31979;DHT22;18502;43.574;1.276;2023-07-13T00:02:15;20.80;99.90
31979;DHT22;18502;43.574;1.276;2023-07-13T00:04:40;20.70;99.90
31979;DHT22;18502;43.574;1.276;2023-07-13T00:07:07;20.80;99.90
31979;DHT22;18502;43.574;1.276;2023-07-13T00:09:33;20.80;99.90
31979;DHT22;18502;43.574;1.276;2023-07-13T00:11:59;20.80;99.90
31979;DHT22;18502;43.574;1.276;2023-07-13T00:14:26;20.70;99.90
31979;DHT22;18502;43.574;1.276;2023-07-13T00:16:52;20.70;99.90
31979;DHT22;18502;43.574;1.276;2023-07-13T00:19:18;20.70;99.90
31979;DHT22;18502;43.574;1.276;2023-07-13T00:21:44;20.70;99.90
31979;DHT22;18502;43.574;1.276;2023-07-13T00:24:15;20.70;99.90
31979;DHT22;18502;43.574;1.276;2023-07-13T00:26:42;20.70;99.90
31979;DHT22;18502;43.574;1.276;2023-07-13T00:29:11;20.60;99.90
31979;DHT22;18502;43.574;1.276;2023-07-13T00:31:37;20.60;99.90
31979;DHT22;18502;43.574;1.276;2023-07-13T00:34:03;20.60;99.90
31979;DHT22;18502;43.574;1.276;2023-07-13T00:36:30;20.60;99.90
31979;DHT22;18502;43.574;1.276;2023-07-13T00:38:56;20.70;99.90
31979;DHT22;18502;43.574;1.276;2023-07-13T00:41:21;20.70;99.90
31979;DHT22;18502;43.574;1.276;2023-07-13T00:43:47;20.70;99.90
31979;DHT22;18502;43.574;1.276;2023-07-13T00:46:18;20.90;99.90
31979;DHT22;18502;43.574;1.276;2023-07-13T00:48:46;20.90;99.90
31979;DHT22;18502;43.574;1.276;2023-07-13T00:51:13;21.00;99.90
31979;DHT22;18502;43.574;1.276;2023-07-13T00:53:39;21.00;99.90
31979;DHT22;18502;43.574;1.276;2023-07-13T00:56:05;21.00;99.90
31979;DHT22;18502;43.574;1.276;2023-07-13T00:58:32;21.00;99.90
31979;DHT22;18502;43.574;1.276;2023-07-13T01:00:58;21.00;99.90
31979;DHT22;18502;43.574;1.276;2023-07-13T01:03:24;21.00;99.90
31979;DHT22;18502;43.574;1.276;2023-07-13T01:05:50;21.00;99.90
31979;DHT22;18502;43.574;1.276;2023-07-13T01:08:17;21.00;99.90
31979;DHT22;18502;43.574;1.276;2023-07-13T01:10:53;21.00;99.90
31979;DHT22;18502;43.574;1.276;2023-07-13T01:13:19;21.10;99.90
31979;DHT22;18502;43.574;1.276;2023-07-13T01:15:48;21.10;99.90
31979;DHT22;18502;43.574;1.276;2023-07-13T01:18:17;21.00;99.90
31979;DHT22;18502;43.574;1.276;2023-07-13T01:20:55;20.90;99.90
31979;DHT22;18502;43.574;1.276;2023-07-13T01:23:21;20.90;99.90
31979;DHT22;18502;43.574;1.276;2023-07-13T01:25:47;20.90;99.90
31979;DHT22;18502;43.574;1.276;2023-07-13T01:28:12;20.90;99.90
31979;DHT22;18502;43.574;1.276;2023-07-13T01:30:39;20.90;99.90
31979;DHT22;18502;43.574;1.276;2023-07-13T01:33:08;21.00;99.90
31979;DHT22;18502;43.574;1.276;2023-07-13T01:35:35;20.90;99.90
31979;DHT22;18502;43.574;1.276;2023-07-13T01:38:01;20.90;99.90
31979;DHT22;18502;43.574;1.276;2023-07-13T01:40:29;20.90;99.90
31979;DHT22;18502;43.574;1.276;2023-07-13T01:42:55;20.90;99.90
31979;DHT22;18502;43.574;1.276;2023-07-13T01:45:21;20.90;99.90
31979;DHT22;18502;43.574;1.276;2023-07-13T01:47:46;20.90;99.90
31979;DHT22;18502;43.574;1.276;2023-07-13T01:50:12;20.80;99.90
31979;DHT22;18502;43.574;1.276;2023-07-13T01:52:38;20.80;99.90
31979;DHT22;18502;43.574;1.276;2023-07-13T01:55:04;20.70;99.90
31979;DHT22;18502;43.574;1.276;2023-07-13T01:57:30;20.70;99.90
31979;DHT22;18502;43.574;1.276;2023-07-13T01:59:55;20.70;99.90
31979;DHT22;18502;43.574;1.276;2023-07-13T02:02:21;20.70;99.90
31979;DHT22;18502;43.574;1.276;2023-07-13T02:04:47;20.60;99.90
31979;DHT22;18502;43.574;1.276;2023-07-13T02:07:12;20.60;99.90
31979;DHT22;18502;43.574;1.276;2023-07-13T02:09:38;20.60;99.90
31979;DHT22;18502;43.574;1.276;2023-07-13T02:12:04;20.60;99.90
31979;DHT22;18502;43.574;1.276;2023-07-13T02:14:30;20.50;99.90
31979;DHT22;18502;43.574;1.276;2023-07-13T02:16:56;20.50;99.90
31979;DHT22;18502;43.574;1.276;2023-07-13T02:19:21;20.40;99.90
31979;DHT22;18502;43.574;1.276;2023-07-13T02:21:48;20.40;99.90
31979;DHT22;18502;43.574;1.276;2023-07-13T02:24:13;20.40;99.90
31979;DHT22;18502;43.574;1.276;2023-07-13T02:26:43;20.30;99.90
31979;DHT22;18502;43.574;1.276;2023-07-13T02:29:09;20.30;99.90
31979;DHT22;18502;43.574;1.276;2023-07-13T02:31:35;20.40;99.90
31979;DHT22;18502;43.574;1.276;2023-07-13T02:34:01;20.30;99.90
31979;DHT22;18502;43.574;1.276;2023-07-13T02:36:28;20.20;99.90
31979;DHT22;18502;43.574;1.276;2023-07-13T02:38:54;20.10;99.90
31979;DHT22;18502;43.574;1.276;2023-07-13T02:41:20;20.20;99.90
31979;DHT22;18502;43.574;1.276;2023-07-13T02:43:45;20.20;99.90
31979;DHT22;18502;43.574;1.276;2023-07-13T02:46:11;20.20;99.90
31979;DHT22;18502;43.574;1.276;2023-07-13T02:48:38;20.20;99.90
31979;DHT22;18502;43.574;1.276;2023-07-13T02:51:05;20.20;99.90
31979;DHT22;18502;43.574;1.276;2023-07-13T02:53:31;20.10;99.90
31979;DHT22;18502;43.574;1.276;2023-07-13T02:55:57;20.20;99.90
31979;DHT22;18502;43.574;1.276;2023-07-13T02:58:23;20.00;99.90
31979;DHT22;18502;43.574;1.276;2023-07-13T03:00:49;20.00;99.90
31979;DHT22;18502;43.574;1.276;2023-07-13T03:03:16;19.90;99.90
31979;DHT22;18502;43.574;1.276;2023-07-13T03:05:44;19.90;99.90
31979;DHT22;18502;43.574;1.276;2023-07-13T03:08:11;19.80;99.90
31979;DHT22;18502;43.574;1.276;2023-07-13T03:10:37;19.80;99.90
31979;DHT22;18502;43.574;1.276;2023-07-13T03:13:05;19.70;99.90
31979;DHT22;18502;43.574;1.276;2023-07-13T03:15:31;19.70;99.90
31979;DHT22;18502;43.574;1.276;2023-07-13T03:17:56;19.70;99.90
31979;DHT22;18502;43.574;1.276;2023-07-13T03:20:22;19.70;99.90
31979;DHT22;18502;43.574;1.276;2023-07-13T03:22:48;19.70;99.90
31979;DHT22;18502;43.574;1.276;2023-07-13T03:25:14;19.70;99.90
31979;DHT22;18502;43.574;1.276;2023-07-13T03:27:39;19.70;99.90
31979;DHT22;18502;43.574;1.276;2023-07-13T03:30:06;19.70;99.90
31979;DHT22;18502;43.574;1.276;2023-07-13T03:32:32;19.60;99.90
31979;DHT22;18502;43.574;1.276;2023-07-13T03:34:58;19.60;99.90
31979;DHT22;18502;43.574;1.276;2023-07-13T03:37:24;19.70;99.90
31979;DHT22;18502;43.574;1.276;2023-07-13T03:39:50;19.60;99.90
31979;DHT22;18502;43.574;1.276;2023-07-13T03:42:16;19.60;99.90
31979;DHT22;18502;43.574;1.276;2023-07-13T03:44:42;19.50;99.90
31979;DHT22;18502;43.574;1.276;2023-07-13T03:47:11;19.50;99.90
31979;DHT22;18502;43.574;1.276;2023-07-13T03:49:37;19.40;99.90
31979;DHT22;18502;43.574;1.276;2023-07-13T03:52:03;19.40;99.90
31979;DHT22;18502;43.574;1.276;2023-07-13T03:54:28;19.40;99.90
31979;DHT22;18502;43.574;1.276;2023-07-13T03:56:54;19.30;99.90
31979;DHT22;18502;43.574;1.276;2023-07-13T03:59:20;19.40;99.90
31979;DHT22;18502;43.574;1.276;2023-07-13T04:01:46;19.30;99.90
31979;DHT22;18502;43.574;1.276;2023-07-13T04:04:12;19.20;99.90
31979;DHT22;18502;43.574;1.276;2023-07-13T04:06:37;19.20;99.90
31979;DHT22;18502;43.574;1.276;2023-07-13T04:09:04;19.10;99.90
31979;DHT22;18502;43.574;1.276;2023-07-13T04:11:34;19.10;99.90
31979;DHT22;18502;43.574;1.276;2023-07-13T04:14:04;19.10;99.90
31979;DHT22;18502;43.574;1.276;2023-07-13T04:16:29;19.00;99.90
31979;DHT22;18502;43.574;1.276;2023-07-13T04:18:56;19.10;99.90
31979;DHT22;18502;43.574;1.276;2023-07-13T04:21:26;19.10;99.90
31979;DHT22;18502;43.574;1.276;2023-07-13T04:23:52;19.10;99.90
31979;DHT22;18502;43.574;1.276;2023-07-13T04:26:18;19.10;99.90
31979;DHT22;18502;43.574;1.276;2023-07-13T04:28:47;19.00;99.90
31979;DHT22;18502;43.574;1.276;2023-07-13T04:31:13;18.90;99.90
31979;DHT22;18502;43.574;1.276;2023-07-13T04:33:39;18.90;99.90
31979;DHT22;18502;43.574;1.276;2023-07-13T04:36:05;18.90;99.90
31979;DHT22;18502;43.574;1.276;2023-07-13T04:38:32;19.00;99.90
31979;DHT22;18502;43.574;1.276;2023-07-13T04:41:04;19.00;99.90
31979;DHT22;18502;43.574;1.276;2023-07-13T04:43:30;19.00;99.90
31979;DHT22;18502;43.574;1.276;2023-07-13T04:45:57;18.90;99.90
31979;DHT22;18502;43.574;1.276;2023-07-13T04:48:23;19.00;99.90
31979;DHT22;18502;43.574;1.276;2023-07-13T04:50:55;18.90;99.90
31979;DHT22;18502;43.574;1.276;2023-07-13T04:53:21;19.00;99.90
31979;DHT22;18502;43.574;1.276;2023-07-13T04:55:46;18.90;99.90
31979;DHT22;18502;43.574;1.276;2023-07-13T04:58:12;18.80;99.90
31979;DHT22;18502;43.574;1.276;2023-07-13T05:00:38;18.70;99.90
31979;DHT22;18502;43.574;1.276;2023-07-13T05:03:04;18.80;99.90
31979;DHT22;18502;43.574;1.276;2023-07-13T05:05:30;18.90;99.90
31979;DHT22;18502;43.574;1.276;2023-07-13T05:07:56;19.00;99.90
31979;DHT22;18502;43.574;1.276;2023-07-13T05:10:22;19.00;99.90
31979;DHT22;18502;43.574;1.276;2023-07-13T05:12:48;19.00;99.90
31979;DHT22;18502;43.574;1.276;2023-07-13T05:15:14;19.00;99.90
31979;DHT22;18502;43.574;1.276;2023-07-13T05:17:40;19.10;99.90
31979;DHT22;18502;43.574;1.276;2023-07-13T05:20:08;19.20;99.90
31979;DHT22;18502;43.574;1.276;2023-07-13T05:22:34;19.10;99.90
31979;DHT22;18502;43.574;1.276;2023-07-13T05:25:01;19.10;99.90
31979;DHT22;18502;43.574;1.276;2023-07-13T05:27:27;19.20;99.90
31979;DHT22;18502;43.574;1.276;2023-07-13T05:29:53;19.20;99.90
31979;DHT22;18502;43.574;1.276;2023-07-13T05:32:18;19.30;99.90
31979;DHT22;18502;43.574;1.276;2023-07-13T05:34:44;19.30;99.90
31979;DHT22;18502;43.574;1.276;2023-07-13T05:37:10;19.30;99.90
31979;DHT22;18502;43.574;1.276;2023-07-13T05:39:36;19.40;99.90
31979;DHT22;18502;43.574;1.276;2023-07-13T05:42:02;19.50;99.90
31979;DHT22;18502;43.574;1.276;2023-07-13T05:44:28;19.50;99.90
31979;DHT22;18502;43.574;1.276;2023-07-13T05:46:54;19.50;99.90
31979;DHT22;18502;43.574;1.276;2023-07-13T05:49:22;19.60;99.90
31979;DHT22;18502;43.574;1.276;2023-07-13T05:51:48;19.60;99.90
31979;DHT22;18502;43.574;1.276;2023-07-13T05:54:13;19.50;99.90
31979;DHT22;18502;43.574;1.276;2023-07-13T05:56:39;19.70;99.90
31979;DHT22;18502;43.574;1.276;2023-07-13T05:59:05;19.90;99.90
31979;DHT22;18502;43.574;1.276;2023-07-13T06:01:31;20.00;99.90
31979;DHT22;18502;43.574;1.276;2023-07-13T06:03:57;19.90;99.90
31979;DHT22;18502;43.574;1.276;2023-07-13T06:06:23;19.90;99.90
31979;DHT22;18502;43.574;1.276;2023-07-13T06:08:48;20.00;99.90
31979;DHT22;18502;43.574;1.276;2023-07-13T06:11:18;20.00;99.90
31979;DHT22;18502;43.574;1.276;2023-07-13T06:13:44;20.00;99.90
31979;DHT22;18502;43.574;1.276;2023-07-13T06:16:10;20.00;99.90
31979;DHT22;18502;43.574;1.276;2023-07-13T06:18:37;19.90;99.90
31979;DHT22;18502;43.574;1.276;2023-07-13T06:21:19;20.00;99.90
31979;DHT22;18502;43.574;1.276;2023-07-13T06:23:46;20.20;99.90
31979;DHT22;18502;43.574;1.276;2023-07-13T06:26:17;20.10;99.90
31979;DHT22;18502;43.574;1.276;2023-07-13T06:28:43;20.00;99.90
31979;DHT22;18502;43.574;1.276;2023-07-13T06:31:11;20.20;99.90
31979;DHT22;18502;43.574;1.276;2023-07-13T06:33:38;20.20;99.90
31979;DHT22;18502;43.574;1.276;2023-07-13T06:36:05;20.30;99.90
31979;DHT22;18502;43.574;1.276;2023-07-13T06:38:31;20.30;99.90
31979;DHT22;18502;43.574;1.276;2023-07-13T06:40:57;20.30;99.90
31979;DHT22;18502;43.574;1.276;2023-07-13T06:43:23;20.20;99.90
31979;DHT22;18502;43.574;1.276;2023-07-13T06:45:50;20.30;99.90
31979;DHT22;18502;43.574;1.276;2023-07-13T06:48:18;20.30;99.90
31979;DHT22;18502;43.574;1.276;2023-07-13T06:50:44;20.30;99.90
31979;DHT22;18502;43.574;1.276;2023-07-13T06:53:11;20.40;99.90
31979;DHT22;18502;43.574;1.276;2023-07-13T06:55:37;20.40;99.90
31979;DHT22;18502;43.574;1.276;2023-07-13T06:58:03;20.40;99.90
31979;DHT22;18502;43.574;1.276;2023-07-13T07:00:29;20.40;99.90
31979;DHT22;18502;43.574;1.276;2023-07-13T07:02:55;20.40;99.90
31979;DHT22;18502;43.574;1.276;2023-07-13T07:05:21;20.50;99.90
31979;DHT22;18502;43.574;1.276;2023-07-13T07:07:51;20.50;99.90
31979;DHT22;18502;43.574;1.276;2023-07-13T07:10:18;20.70;99.90
31979;DHT22;18502;43.574;1.276;2023-07-13T07:12:44;20.70;99.90
31979;DHT22;18502;43.574;1.276;2023-07-13T07:15:10;20.90;99.90
31979;DHT22;18502;43.574;1.276;2023-07-13T07:17:36;20.90;99.90
31979;DHT22;18502;43.574;1.276;2023-07-13T07:20:02;21.00;99.90
31979;DHT22;18502;43.574;1.276;2023-07-13T07:22:29;21.30;99.90
31979;DHT22;18502;43.574;1.276;2023-07-13T07:24:56;21.30;99.90
31979;DHT22;18502;43.574;1.276;2023-07-13T07:27:21;21.30;99.90
31979;DHT22;18502;43.574;1.276;2023-07-13T07:29:47;21.70;99.90
31979;DHT22;18502;43.574;1.276;2023-07-13T07:32:13;21.90;99.90
31979;DHT22;18502;43.574;1.276;2023-07-13T07:34:39;22.00;99.90
31979;DHT22;18502;43.574;1.276;2023-07-13T07:37:04;22.10;99.90
31979;DHT22;18502;43.574;1.276;2023-07-13T07:39:30;22.40;99.90
31979;DHT22;18502;43.574;1.276;2023-07-13T07:41:56;22.60;99.90
31979;DHT22;18502;43.574;1.276;2023-07-13T07:44:22;22.70;99.90
31979;DHT22;18502;43.574;1.276;2023-07-13T07:46:48;22.50;99.90
31979;DHT22;18502;43.574;1.276;2023-07-13T07:49:14;22.60;99.90
31979;DHT22;18502;43.574;1.276;2023-07-13T07:51:40;22.80;99.90
31979;DHT22;18502;43.574;1.276;2023-07-13T07:54:06;22.90;99.90
31979;DHT22;18502;43.574;1.276;2023-07-13T07:56:32;23.10;99.90
31979;DHT22;18502;43.574;1.276;2023-07-13T07:58:58;23.10;99.90
31979;DHT22;18502;43.574;1.276;2023-07-13T08:01:24;23.00;99.90
31979;DHT22;18502;43.574;1.276;2023-07-13T08:03:49;23.20;99.90
31979;DHT22;18502;43.574;1.276;2023-07-13T08:06:15;23.20;99.90
31979;DHT22;18502;43.574;1.276;2023-07-13T08:08:41;22.90;99.90
31979;DHT22;18502;43.574;1.276;2023-07-13T08:11:08;22.70;99.90
31979;DHT22;18502;43.574;1.276;2023-07-13T08:13:34;22.40;99.90
31979;DHT22;18502;43.574;1.276;2023-07-13T08:16:00;22.90;99.90
31979;DHT22;18502;43.574;1.276;2023-07-13T08:18:26;22.50;99.90
31979;DHT22;18502;43.574;1.276;2023-07-13T08:20:53;22.60;99.90
31979;DHT22;18502;43.574;1.276;2023-07-13T08:23:21;22.80;99.90
31979;DHT22;18502;43.574;1.276;2023-07-13T08:25:52;23.10;99.90
31979;DHT22;18502;43.574;1.276;2023-07-13T08:28:18;23.00;99.90
31979;DHT22;18502;43.574;1.276;2023-07-13T08:30:44;23.30;99.90
31979;DHT22;18502;43.574;1.276;2023-07-13T08:33:09;24.10;99.90
31979;DHT22;18502;43.574;1.276;2023-07-13T08:35:35;24.40;99.90
31979;DHT22;18502;43.574;1.276;2023-07-13T08:38:01;24.20;99.90
31979;DHT22;18502;43.574;1.276;2023-07-13T08:40:27;24.40;99.90
31979;DHT22;18502;43.574;1.276;2023-07-13T08:42:58;23.80;99.90
31979;DHT22;18502;43.574;1.276;2023-07-13T08:45:30;23.70;99.90
31979;DHT22;18502;43.574;1.276;2023-07-13T08:48:03;23.80;99.90
31979;DHT22;18502;43.574;1.276;2023-07-13T08:50:34;23.60;99.90
31979;DHT22;18502;43.574;1.276;2023-07-13T08:53:02;23.30;99.90
31979;DHT22;18502;43.574;1.276;2023-07-13T08:55:34;23.70;99.90
31979;DHT22;18502;43.574;1.276;2023-07-13T08:58:12;24.20;99.90
31979;DHT22;18502;43.574;1.276;2023-07-13T09:00:56;24.30;99.90
31979;DHT22;18502;43.574;1.276;2023-07-13T09:03:27;24.40;99.90
31979;DHT22;18502;43.574;1.276;2023-07-13T09:05:58;24.30;99.90
31979;DHT22;18502;43.574;1.276;2023-07-13T09:08:46;24.60;99.90
31979;DHT22;18502;43.574;1.276;2023-07-13T09:16:40;25.40;99.90
31979;DHT22;18502;43.574;1.276;2023-07-13T09:19:11;25.20;99.90
31979;DHT22;18502;43.574;1.276;2023-07-13T09:21:41;25.20;99.90
31979;DHT22;18502;43.574;1.276;2023-07-13T09:26:48;25.70;99.90
31979;DHT22;18502;43.574;1.276;2023-07-13T09:29:33;25.90;99.90
31979;DHT22;18502;43.574;1.276;2023-07-13T09:32:03;25.80;99.90
31979;DHT22;18502;43.574;1.276;2023-07-13T09:34:32;26.20;99.90
31979;DHT22;18502;43.574;1.276;2023-07-13T09:36:58;26.10;99.90
31979;DHT22;18502;43.574;1.276;2023-07-13T09:39:29;26.00;99.90
31979;DHT22;18502;43.574;1.276;2023-07-13T09:42:06;26.10;99.90
31979;DHT22;18502;43.574;1.276;2023-07-13T09:44:38;26.10;99.90
31979;DHT22;18502;43.574;1.276;2023-07-13T09:47:16;25.90;99.90
31979;DHT22;18502;43.574;1.276;2023-07-13T09:49:42;26.10;99.90
31979;DHT22;18502;43.574;1.276;2023-07-13T09:52:15;26.90;99.90
31979;DHT22;18502;43.574;1.276;2023-07-13T09:54:44;26.90;99.90
31979;DHT22;18502;43.574;1.276;2023-07-13T09:57:17;27.10;99.90
31979;DHT22;18502;43.574;1.276;2023-07-13T09:59:45;27.40;99.90
31979;DHT22;18502;43.574;1.276;2023-07-13T10:05:03;27.10;99.90
31979;DHT22;18502;43.574;1.276;2023-07-13T10:07:31;26.70;99.90
31979;DHT22;18502;43.574;1.276;2023-07-13T10:10:00;25.80;99.90
31979;DHT22;18502;43.574;1.276;2023-07-13T10:12:29;26.30;99.90
31979;DHT22;18502;43.574;1.276;2023-07-13T10:14:58;26.90;99.90
31979;DHT22;18502;43.574;1.276;2023-07-13T10:17:27;26.20;99.90
31979;DHT22;18502;43.574;1.276;2023-07-13T10:20:03;25.40;99.90
31979;DHT22;18502;43.574;1.276;2023-07-13T10:23:02;26.10;99.90
31979;DHT22;18502;43.574;1.276;2023-07-13T10:25:37;25.50;99.90
31979;DHT22;18502;43.574;1.276;2023-07-13T10:30:40;25.90;99.90
31979;DHT22;18502;43.574;1.276;2023-07-13T10:33:10;25.90;99.90
31979;DHT22;18502;43.574;1.276;2023-07-13T10:35:37;26.30;99.90
31979;DHT22;18502;43.574;1.276;2023-07-13T10:38:11;26.10;99.90
31979;DHT22;18502;43.574;1.276;2023-07-13T10:40:52;26.50;99.90
31979;DHT22;18502;43.574;1.276;2023-07-13T10:43:42;27.00;99.90
31979;DHT22;18502;43.574;1.276;2023-07-13T10:46:12;27.10;99.90
31979;DHT22;18502;43.574;1.276;2023-07-13T10:48:39;27.60;99.90
31979;DHT22;18502;43.574;1.276;2023-07-13T10:51:06;27.90;99.90
31979;DHT22;18502;43.574;1.276;2023-07-13T10:53:34;27.60;99.90
31979;DHT22;18502;43.574;1.276;2023-07-13T10:58:36;28.40;99.90
31979;DHT22;18502;43.574;1.276;2023-07-13T11:01:38;28.60;99.90
31979;DHT22;18502;43.574;1.276;2023-07-13T11:04:04;28.00;99.90
31979;DHT22;18502;43.574;1.276;2023-07-13T11:06:37;27.80;99.90
31979;DHT22;18502;43.574;1.276;2023-07-13T11:11:45;27.20;99.90
31979;DHT22;18502;43.574;1.276;2023-07-13T11:16:56;27.30;99.90
31979;DHT22;18502;43.574;1.276;2023-07-13T11:24:57;29.30;99.90
31979;DHT22;18502;43.574;1.276;2023-07-13T11:27:42;29.20;99.90
31979;DHT22;18502;43.574;1.276;2023-07-13T11:30:25;28.20;99.90
31979;DHT22;18502;43.574;1.276;2023-07-13T11:33:19;29.40;99.90
31979;DHT22;18502;43.574;1.276;2023-07-13T11:36:02;29.30;99.90
31979;DHT22;18502;43.574;1.276;2023-07-13T11:38:40;28.10;99.90
31979;DHT22;18502;43.574;1.276;2023-07-13T11:41:30;26.90;99.90
31979;DHT22;18502;43.574;1.276;2023-07-13T11:44:28;27.50;99.90
31979;DHT22;18502;43.574;1.276;2023-07-13T11:47:20;28.80;99.90
31979;DHT22;18502;43.574;1.276;2023-07-13T11:49:49;28.10;99.90
31979;DHT22;18502;43.574;1.276;2023-07-13T11:52:32;28.90;99.90
31979;DHT22;18502;43.574;1.276;2023-07-13T11:55:00;28.90;99.90
31979;DHT22;18502;43.574;1.276;2023-07-13T11:57:32;29.30;99.90
31979;DHT22;18502;43.574;1.276;2023-07-13T12:00:11;30.10;99.90
31979;DHT22;18502;43.574;1.276;2023-07-13T12:02:40;32.10;99.90
31979;DHT22;18502;43.574;1.276;2023-07-13T12:05:09;32.10;99.90
31979;DHT22;18502;43.574;1.276;2023-07-13T12:07:38;32.10;99.90
31979;DHT22;18502;43.574;1.276;2023-07-13T12:10:27;34.20;99.90
31979;DHT22;18502;43.574;1.276;2023-07-13T12:13:01;34.30;99.90
31979;DHT22;18502;43.574;1.276;2023-07-13T12:15:43;31.40;99.90
31979;DHT22;18502;43.574;1.276;2023-07-13T12:18:23;30.00;99.90
31979;DHT22;18502;43.574;1.276;2023-07-13T12:20:50;31.40;99.90
31979;DHT22;18502;43.574;1.276;2023-07-13T12:23:30;35.20;99.90
31979;DHT22;18502;43.574;1.276;2023-07-13T12:25:58;34.70;99.90
31979;DHT22;18502;43.574;1.276;2023-07-13T12:33:45;35.30;99.90
31979;DHT22;18502;43.574;1.276;2023-07-13T12:36:12;34.60;99.90
31979;DHT22;18502;43.574;1.276;2023-07-13T12:38:38;32.20;99.90
31979;DHT22;18502;43.574;1.276;2023-07-13T12:41:04;33.00;99.90
31979;DHT22;18502;43.574;1.276;2023-07-13T12:43:34;33.80;99.90
31979;DHT22;18502;43.574;1.276;2023-07-13T12:46:19;31.90;99.90
31979;DHT22;18502;43.574;1.276;2023-07-13T12:48:53;35.60;99.90
31979;DHT22;18502;43.574;1.276;2023-07-13T12:51:22;35.50;99.90
31979;DHT22;18502;43.574;1.276;2023-07-13T12:53:55;35.40;99.90
31979;DHT22;18502;43.574;1.276;2023-07-13T12:56:24;34.70;99.90
31979;DHT22;18502;43.574;1.276;2023-07-13T12:58:56;34.00;99.90
31979;DHT22;18502;43.574;1.276;2023-07-13T13:01:25;32.70;99.90
31979;DHT22;18502;43.574;1.276;2023-07-13T13:03:53;33.10;99.90
31979;DHT22;18502;43.574;1.276;2023-07-13T13:06:23;31.90;99.90
31979;DHT22;18502;43.574;1.276;2023-07-13T13:08:54;30.90;99.90
31979;DHT22;18502;43.574;1.276;2023-07-13T13:11:21;30.70;99.90
31979;DHT22;18502;43.574;1.276;2023-07-13T13:13:49;31.60;99.90
31979;DHT22;18502;43.574;1.276;2023-07-13T13:18:55;36.20;99.90
31979;DHT22;18502;43.574;1.276;2023-07-13T13:21:23;39.80;99.90
31979;DHT22;18502;43.574;1.276;2023-07-13T13:23:49;37.20;99.90
31979;DHT22;18502;43.574;1.276;2023-07-13T13:26:17;38.50;99.90
31979;DHT22;18502;43.574;1.276;2023-07-13T13:28:44;39.70;99.90
31979;DHT22;18502;43.574;1.276;2023-07-13T13:31:11;37.10;99.90
31979;DHT22;18502;43.574;1.276;2023-07-13T13:33:40;35.00;99.90
31979;DHT22;18502;43.574;1.276;2023-07-13T13:36:20;35.90;99.90
31979;DHT22;18502;43.574;1.276;2023-07-13T13:38:48;34.30;99.90
31979;DHT22;18502;43.574;1.276;2023-07-13T13:41:14;36.90;99.90
31979;DHT22;18502;43.574;1.276;2023-07-13T13:43:43;34.20;99.90
31979;DHT22;18502;43.574;1.276;2023-07-13T13:46:19;35.00;99.90
31979;DHT22;18502;43.574;1.276;2023-07-13T13:48:46;35.10;99.90
31979;DHT22;18502;43.574;1.276;2023-07-13T13:51:18;34.20;99.90
31979;DHT22;18502;43.574;1.276;2023-07-13T13:53:45;33.40;99.90
31979;DHT22;18502;43.574;1.276;2023-07-13T13:56:14;33.30;99.90
31979;DHT22;18502;43.574;1.276;2023-07-13T13:58:41;35.50;99.90
31979;DHT22;18502;43.574;1.276;2023-07-13T14:01:18;36.40;99.90
31979;DHT22;18502;43.574;1.276;2023-07-13T14:03:45;37.50;99.90
31979;DHT22;18502;43.574;1.276;2023-07-13T14:06:13;38.60;99.90
31979;DHT22;18502;43.574;1.276;2023-07-13T14:08:39;40.10;99.90
31979;DHT22;18502;43.574;1.276;2023-07-13T14:11:05;38.40;99.90
31979;DHT22;18502;43.574;1.276;2023-07-13T14:13:36;41.80;99.90
31979;DHT22;18502;43.574;1.276;2023-07-13T14:16:04;44.50;99.90
31979;DHT22;18502;43.574;1.276;2023-07-13T14:18:30;41.70;99.90
31979;DHT22;18502;43.574;1.276;2023-07-13T14:20:56;42.90;99.90
31979;DHT22;18502;43.574;1.276;2023-07-13T14:23:22;38.80;99.90
31979;DHT22;18502;43.574;1.276;2023-07-13T14:25:47;37.50;99.90
31979;DHT22;18502;43.574;1.276;2023-07-13T14:28:21;36.40;99.90
31979;DHT22;18502;43.574;1.276;2023-07-13T14:30:48;35.40;99.90
31979;DHT22;18502;43.574;1.276;2023-07-13T14:33:14;36.60;99.90
31979;DHT22;18502;43.574;1.276;2023-07-13T14:35:40;37.20;99.90
31979;DHT22;18502;43.574;1.276;2023-07-13T14:38:15;33.40;99.90
31979;DHT22;18502;43.574;1.276;2023-07-13T14:40:41;35.80;99.90
31979;DHT22;18502;43.574;1.276;2023-07-13T14:43:11;41.80;99.90
31979;DHT22;18502;43.574;1.276;2023-07-13T14:45:40;37.70;99.90
31979;DHT22;18502;43.574;1.276;2023-07-13T14:48:25;37.50;99.90
31979;DHT22;18502;43.574;1.276;2023-07-13T14:50:54;39.70;99.90
31979;DHT22;18502;43.574;1.276;2023-07-13T14:53:22;44.10;99.90
31979;DHT22;18502;43.574;1.276;2023-07-13T14:55:48;46.10;99.90
31979;DHT22;18502;43.574;1.276;2023-07-13T14:58:13;44.80;99.90
31979;DHT22;18502;43.574;1.276;2023-07-13T15:00:39;41.90;99.90
31979;DHT22;18502;43.574;1.276;2023-07-13T15:03:19;41.80;99.90
31979;DHT22;18502;43.574;1.276;2023-07-13T15:05:50;36.70;99.90
31979;DHT22;18502;43.574;1.276;2023-07-13T15:08:16;34.50;99.90
31979;DHT22;18502;43.574;1.276;2023-07-13T15:10:42;33.90;99.90
31979;DHT22;18502;43.574;1.276;2023-07-13T15:13:15;33.00;99.90
31979;DHT22;18502;43.574;1.276;2023-07-13T15:15:43;36.60;99.90
31979;DHT22;18502;43.574;1.276;2023-07-13T15:18:12;34.90;99.90
31979;DHT22;18502;43.574;1.276;2023-07-13T15:20:39;33.00;99.90
31979;DHT22;18502;43.574;1.276;2023-07-13T15:23:04;38.50;99.90
31979;DHT22;18502;43.574;1.276;2023-07-13T15:25:32;38.60;99.90
31979;DHT22;18502;43.574;1.276;2023-07-13T15:27:59;37.00;99.90
31979;DHT22;18502;43.574;1.276;2023-07-13T15:30:46;34.80;99.90
31979;DHT22;18502;43.574;1.276;2023-07-13T15:33:28;33.00;99.90
31979;DHT22;18502;43.574;1.276;2023-07-13T15:35:55;33.50;99.90
31979;DHT22;18502;43.574;1.276;2023-07-13T15:38:27;32.70;99.90
31979;DHT22;18502;43.574;1.276;2023-07-13T15:40:53;34.70;99.90
31979;DHT22;18502;43.574;1.276;2023-07-13T15:43:19;39.10;99.90
31979;DHT22;18502;43.574;1.276;2023-07-13T15:45:46;41.80;99.90
31979;DHT22;18502;43.574;1.276;2023-07-13T15:48:18;42.50;99.90
31979;DHT22;18502;43.574;1.276;2023-07-13T15:50:54;36.60;99.90
31979;DHT22;18502;43.574;1.276;2023-07-13T15:53:31;35.70;99.90
31979;DHT22;18502;43.574;1.276;2023-07-13T15:55:58;33.50;99.90
31979;DHT22;18502;43.574;1.276;2023-07-13T15:58:24;32.00;99.90
31979;DHT22;18502;43.574;1.276;2023-07-13T16:00:50;35.80;99.90
31979;DHT22;18502;43.574;1.276;2023-07-13T16:03:17;37.40;99.90
31979;DHT22;18502;43.574;1.276;2023-07-13T16:05:44;35.20;99.90
31979;DHT22;18502;43.574;1.276;2023-07-13T16:08:39;32.70;99.90
31979;DHT22;18502;43.574;1.276;2023-07-13T16:11:16;38.20;99.90
31979;DHT22;18502;43.574;1.276;2023-07-13T16:13:43;40.60;99.90
31979;DHT22;18502;43.574;1.276;2023-07-13T16:16:11;38.50;99.90